Time;durP1;ratioP1;P1;durP2;ratioP2;P2;SDS_P1;SDS_P2;PMS_P1;PMS_P2;Temp;Humidity;BMP_temperature;BMP_pressure;BME280_temperature;BME280_humidity;BME280_pressure;Samples;Min_cycle;Max_cycle;Signal;HPM_P1;HPM_P2
2024/01/27 00:01:24;;;;;;;34.65;4.38;;;5.10;99.90;;;;;;4952838;28;20376;-80
2024/01/27 00:03:50;;;;;;;24.52;4.00;;;5.10;99.90;;;;;;4947794;28;20238;-82
2024/01/27 00:06:16;;;;;;;19.15;4.05;;;5.10;99.90;;;;;;4944507;28;20500;-80
2024/01/27 00:08:41;;;;;;;28.25;4.30;;;5.10;99.90;;;;;;4944368;28;20027;-80
2024/01/27 00:11:07;;;;;;;39.95;4.43;;;5.10;99.90;;;;;;4928293;28;20036;-82
2024/01/27 00:13:32;;;;;;;25.15;3.78;;;5.10;99.90;;;;;;4951718;28;20079;-84
2024/01/27 00:15:58;;;;;;;33.47;4.88;;;5.10;99.90;;;;;;4948282;28;20046;-88
2024/01/27 00:18:24;;;;;;;24.65;4.10;;;5.00;99.90;;;;;;4944266;28;20484;-80
2024/01/27 00:20:49;;;;;;;34.13;3.90;;;5.10;99.90;;;;;;4957343;28;20027;-81
2024/01/27 00:23:15;;;;;;;32.58;4.60;;;5.00;99.90;;;;;;4949409;28;20110;-81
2024/01/27 00:25:40;;;;;;;26.67;3.83;;;5.10;99.90;;;;;;4952954;28;20019;-84
2024/01/27 00:28:06;;;;;;;31.20;3.85;;;5.10;99.90;;;;;;4947124;29;20055;-80
2024/01/27 00:30:32;;;;;;;27.60;4.32;;;5.00;99.90;;;;;;4948094;29;20031;-82
2024/01/27 00:32:57;;;;;;;32.10;4.05;;;5.10;99.90;;;;;;4946612;29;20380;-82
2024/01/27 00:35:23;;;;;;;31.17;3.90;;;5.00;99.90;;;;;;4946281;28;20043;-82
2024/01/27 00:37:48;;;;;;;23.73;3.92;;;5.00;99.90;;;;;;4946663;28;20122;-81
2024/01/27 00:40:14;;;;;;;35.80;5.25;;;5.00;99.90;;;;;;4951779;28;20065;-79
2024/01/27 00:42:40;;;;;;;26.27;4.22;;;5.00;99.90;;;;;;4951571;28;20019;-88
2024/01/27 00:45:06;;;;;;;29.45;5.10;;;5.00;99.90;;;;;;4947572;29;20270;-86
2024/01/27 00:47:32;;;;;;;26.30;4.28;;;5.00;99.90;;;;;;4957139;28;20134;-85
2024/01/27 00:49:58;;;;;;;32.67;4.32;;;5.00;99.90;;;;;;4956594;28;20127;-82
2024/01/27 00:52:24;;;;;;;32.38;4.60;;;5.00;99.90;;;;;;4949196;28;20491;-82
2024/01/27 00:54:49;;;;;;;32.30;4.35;;;4.90;99.90;;;;;;4952982;28;20364;-82
2024/01/27 00:57:17;;;;;;;28.20;4.18;;;5.00;99.90;;;;;;4951272;28;20074;-89
2024/01/27 00:59:43;;;;;;;30.60;4.68;;;4.90;99.90;;;;;;4946663;28;20019;-82
2024/01/27 01:02:09;;;;;;;20.88;3.90;;;4.90;99.90;;;;;;4951162;28;20341;-81
2024/01/27 01:04:34;;;;;;;21.73;3.95;;;4.90;99.90;;;;;;4952522;28;20027;-81
2024/01/27 01:07:00;;;;;;;28.85;5.32;;;4.90;99.90;;;;;;4952444;28;20129;-80
2024/01/27 01:09:25;;;;;;;22.85;3.85;;;4.80;99.90;;;;;;4949782;28;20039;-84
2024/01/27 01:11:51;;;;;;;21.05;4.72;;;4.80;99.90;;;;;;4948989;28;20033;-79
2024/01/27 01:14:17;;;;;;;26.30;4.45;;;4.80;99.90;;;;;;4952128;28;20403;-80
2024/01/27 01:16:42;;;;;;;28.00;5.32;;;4.80;99.90;;;;;;4949844;28;20019;-81
2024/01/27 01:19:08;;;;;;;29.02;3.45;;;4.70;99.90;;;;;;4943150;29;20035;-81
2024/01/27 01:21:34;;;;;;;36.55;5.70;;;4.80;99.90;;;;;;4946457;28;20019;-80
2024/01/27 01:23:59;;;;;;;25.42;4.20;;;4.80;99.90;;;;;;4950142;28;20024;-80
2024/01/27 01:26:25;;;;;;;25.08;3.90;;;4.80;99.90;;;;;;4945225;28;20422;-81
2024/01/27 01:28:51;;;;;;;27.35;4.25;;;4.80;99.90;;;;;;4949377;28;20085;-82
2024/01/27 01:31:17;;;;;;;33.42;5.13;;;4.80;99.90;;;;;;4945411;28;20035;-80
2024/01/27 01:33:43;;;;;;;30.38;4.32;;;4.80;99.90;;;;;;4944300;28;20039;-80
2024/01/27 01:36:09;;;;;;;21.38;4.22;;;4.80;99.90;;;;;;4929011;28;20039;-79
2024/01/27 01:38:34;;;;;;;25.00;4.38;;;4.80;99.90;;;;;;4950455;28;20090;-83
2024/01/27 01:41:00;;;;;;;18.40;4.05;;;4.80;99.90;;;;;;4948408;28;20097;-80
2024/01/27 01:43:26;;;;;;;27.30;4.40;;;4.80;99.90;;;;;;4945456;28;20035;-83
2024/01/27 01:45:53;;;;;;;25.75;3.55;;;4.80;99.90;;;;;;4945849;28;20114;-82
2024/01/27 01:48:19;;;;;;;21.70;4.25;;;4.80;99.90;;;;;;4946855;28;20031;-81
2024/01/27 01:50:45;;;;;;;36.75;4.78;;;4.70;99.90;;;;;;4948516;28;20041;-82
2024/01/27 01:53:12;;;;;;;28.90;4.45;;;4.70;99.90;;;;;;4946565;28;20400;-84
2024/01/27 01:55:38;;;;;;;26.50;4.13;;;4.70;99.90;;;;;;4942646;28;20024;-82
2024/01/27 01:58:04;;;;;;;29.63;6.57;;;4.70;99.90;;;;;;4940394;29;20384;-82
2024/01/27 02:00:30;;;;;;;30.10;3.90;;;4.60;99.90;;;;;;4943528;28;20023;-80
2024/01/27 02:02:56;;;;;;;27.90;4.95;;;4.60;99.90;;;;;;4944903;28;20199;-80
2024/01/27 02:05:22;;;;;;;29.05;3.38;;;4.70;99.90;;;;;;4948566;28;20027;-83
2024/01/27 02:07:47;;;;;;;22.70;3.58;;;4.60;99.90;;;;;;4941428;29;20030;-82
2024/01/27 02:10:36;;;;;;;23.08;3.80;;;4.60;99.90;;;;;;4941026;28;20030;-80
2024/01/27 02:13:20;;;;;;;23.90;4.05;;;4.60;99.90;;;;;;4945283;28;20023;-80
2024/01/27 02:15:46;;;;;;;29.38;4.93;;;4.60;99.90;;;;;;4945252;28;20023;-81
2024/01/27 02:18:12;;;;;;;25.95;4.38;;;4.60;99.90;;;;;;4945740;28;20055;-81
2024/01/27 02:20:38;;;;;;;17.95;3.80;;;4.60;99.90;;;;;;4946714;28;20061;-81
2024/01/27 02:23:04;;;;;;;27.92;4.15;;;4.60;99.90;;;;;;4946005;28;20445;-80
2024/01/27 02:25:30;;;;;;;25.02;5.00;;;4.60;99.90;;;;;;4946174;28;20031;-83
2024/01/27 02:27:56;;;;;;;28.63;5.20;;;4.60;99.90;;;;;;4945547;28;20027;-82
2024/01/27 02:30:22;;;;;;;18.52;3.20;;;4.60;99.90;;;;;;4946433;28;20027;-87
2024/01/27 02:32:47;;;;;;;17.92;3.75;;;4.60;99.90;;;;;;4939667;28;20372;-78
2024/01/27 02:35:14;;;;;;;31.75;4.65;;;4.60;99.90;;;;;;4942613;29;20419;-81
2024/01/27 02:37:40;;;;;;;18.98;3.60;;;4.60;99.90;;;;;;4946571;28;20035;-81
2024/01/27 02:40:07;;;;;;;34.47;3.88;;;4.60;99.90;;;;;;4946661;28;20027;-82
2024/01/27 02:42:32;;;;;;;25.80;4.00;;;4.60;99.90;;;;;;4932200;29;20035;-84
2024/01/27 02:44:58;;;;;;;19.98;3.55;;;4.60;99.90;;;;;;4937208;28;20552;-84
2024/01/27 02:47:23;;;;;;;31.48;4.15;;;4.50;99.90;;;;;;4943724;28;20061;-82
2024/01/27 02:49:49;;;;;;;31.02;4.30;;;4.50;99.90;;;;;;4944044;28;20105;-83
2024/01/27 02:52:14;;;;;;;30.23;4.20;;;4.50;99.90;;;;;;4947555;28;20488;-80
2024/01/27 02:54:40;;;;;;;17.40;3.63;;;4.50;99.90;;;;;;4946116;28;20055;-80
2024/01/27 02:57:06;;;;;;;23.02;4.13;;;4.50;99.90;;;;;;4943558;28;20019;-80
2024/01/27 02:59:31;;;;;;;24.33;4.28;;;4.50;99.90;;;;;;4945682;28;20547;-81
2024/01/27 03:01:57;;;;;;;32.80;4.47;;;4.50;99.90;;;;;;4946071;28;20416;-81
2024/01/27 03:04:22;;;;;;;29.77;4.22;;;4.50;99.90;;;;;;4949201;28;20026;-86
2024/01/27 03:06:48;;;;;;;19.98;3.92;;;4.50;99.90;;;;;;4951992;28;20031;-80
2024/01/27 03:09:14;;;;;;;28.48;5.93;;;4.50;99.90;;;;;;4946511;28;20024;-81
2024/01/27 03:11:39;;;;;;;28.42;3.92;;;4.50;99.90;;;;;;4941113;28;20028;-81
2024/01/27 03:14:05;;;;;;;32.00;5.75;;;4.60;99.90;;;;;;4945059;28;20038;-80
2024/01/27 03:16:30;;;;;;;33.72;4.68;;;4.60;99.90;;;;;;4943244;28;20054;-81
2024/01/27 03:18:56;;;;;;;30.33;4.30;;;4.70;99.90;;;;;;4943105;29;20514;-84
2024/01/27 03:21:21;;;;;;;28.00;5.03;;;4.70;99.90;;;;;;4942688;28;20018;-81
2024/01/27 03:23:47;;;;;;;22.92;4.72;;;4.70;99.90;;;;;;4944412;28;20035;-84
2024/01/27 03:26:12;;;;;;;31.92;3.88;;;4.70;99.90;;;;;;4948971;28;20022;-84
2024/01/27 03:28:38;;;;;;;36.35;5.20;;;4.70;99.90;;;;;;4946891;28;20031;-80
2024/01/27 03:31:04;;;;;;;33.05;4.40;;;4.70;99.90;;;;;;4947414;28;20027;-79
2024/01/27 03:33:30;;;;;;;31.23;4.53;;;4.70;99.90;;;;;;4947025;28;20030;-87
2024/01/27 03:35:56;;;;;;;27.88;4.53;;;4.80;99.90;;;;;;4945717;28;20019;-86
2024/01/27 03:38:21;;;;;;;26.08;3.75;;;4.70;99.90;;;;;;4946376;29;20035;-82
2024/01/27 03:40:47;;;;;;;28.20;4.00;;;4.80;99.90;;;;;;4944483;28;20035;-81
2024/01/27 03:43:13;;;;;;;29.50;3.65;;;4.80;99.90;;;;;;4944401;28;20019;-91
2024/01/27 03:45:38;;;;;;;25.52;4.05;;;4.80;99.90;;;;;;4950921;28;20031;-81
2024/01/27 03:48:04;;;;;;;39.13;5.25;;;4.80;99.90;;;;;;4948555;28;20034;-80
2024/01/27 03:50:30;;;;;;;24.15;3.95;;;4.80;99.90;;;;;;4955602;28;20046;-84
2024/01/27 03:52:55;;;;;;;41.33;5.45;;;4.80;99.90;;;;;;4949813;28;20051;-82
2024/01/27 03:55:21;;;;;;;21.95;4.18;;;4.80;99.90;;;;;;4946033;28;20030;-83
2024/01/27 03:57:46;;;;;;;25.73;4.05;;;4.70;99.90;;;;;;4948973;28;20035;-79
2024/01/27 04:00:13;;;;;;;26.83;4.22;;;4.70;99.90;;;;;;4949060;28;20023;-87
2024/01/27 04:02:38;;;;;;;22.85;3.92;;;4.70;99.90;;;;;;4951400;28;20030;-81
2024/01/27 04:05:05;;;;;;;28.48;4.28;;;4.80;99.90;;;;;;4948708;28;20633;-82
2024/01/27 04:07:31;;;;;;;27.92;4.18;;;4.70;99.90;;;;;;4948702;28;20027;-79
2024/01/27 04:09:56;;;;;;;36.80;4.60;;;4.80;99.90;;;;;;4945130;28;20051;-83
2024/01/27 04:12:22;;;;;;;34.60;4.78;;;4.80;99.90;;;;;;4947569;28;20058;-81
2024/01/27 04:14:47;;;;;;;17.85;3.60;;;4.70;99.90;;;;;;4933126;28;20082;-82
2024/01/27 04:17:13;;;;;;;30.88;4.07;;;4.70;99.90;;;;;;4948276;28;20147;-82
2024/01/27 04:19:39;;;;;;;35.92;5.13;;;4.70;99.90;;;;;;4944138;28;20039;-80
2024/01/27 04:22:04;;;;;;;30.23;4.43;;;4.70;99.90;;;;;;4948250;28;20086;-80
2024/01/27 04:24:30;;;;;;;35.47;6.25;;;4.70;99.90;;;;;;4948947;28;20026;-79
2024/01/27 04:26:55;;;;;;;40.53;5.60;;;4.80;99.90;;;;;;4947548;28;20263;-81
2024/01/27 04:29:21;;;;;;;51.55;8.02;;;4.80;99.90;;;;;;4947082;28;20038;-82
2024/01/27 04:31:46;;;;;;;26.52;5.97;;;4.80;99.90;;;;;;4946140;28;20079;-81
2024/01/27 04:34:12;;;;;;;41.60;4.78;;;4.80;99.90;;;;;;4945675;28;20023;-82
2024/01/27 04:36:38;;;;;;;22.30;4.82;;;4.80;99.90;;;;;;4946208;29;20023;-81
2024/01/27 04:39:04;;;;;;;32.33;4.43;;;4.80;99.90;;;;;;4948527;28;20067;-83
2024/01/27 04:41:29;;;;;;;35.13;4.90;;;4.90;99.90;;;;;;4951074;28;20329;-81
2024/01/27 04:43:58;;;;;;;25.30;4.45;;;4.80;99.90;;;;;;4947720;28;20384;-81
2024/01/27 04:46:24;;;;;;;23.83;3.97;;;4.90;99.90;;;;;;4950117;28;20026;-85
2024/01/27 04:48:50;;;;;;;29.80;4.43;;;4.90;99.90;;;;;;4945744;28;20019;-80
2024/01/27 04:51:16;;;;;;;37.72;5.90;;;4.90;99.90;;;;;;4949175;28;20035;-81
2024/01/27 04:53:41;;;;;;;25.02;3.97;;;4.90;99.90;;;;;;4944823;28;20110;-80
2024/01/27 04:56:07;;;;;;;18.75;3.35;;;4.90;99.90;;;;;;4927660;29;20027;-82
2024/01/27 04:58:34;;;;;;;31.65;3.90;;;4.90;99.90;;;;;;4944154;28;20042;-82
2024/01/27 05:01:01;;;;;;;26.83;4.85;;;5.00;99.90;;;;;;4945770;28;20033;-81
2024/01/27 05:03:27;;;;;;;30.25;5.30;;;4.90;99.90;;;;;;4952321;28;20099;-81
2024/01/27 05:05:52;;;;;;;43.05;6.10;;;4.90;99.90;;;;;;4950894;28;20121;-84
2024/01/27 05:08:19;;;;;;;21.08;4.18;;;4.90;99.90;;;;;;4945037;28;20051;-86
2024/01/27 05:10:44;;;;;;;33.20;3.78;;;4.90;99.90;;;;;;4947637;28;20106;-81
2024/01/27 05:13:10;;;;;;;23.08;4.43;;;4.90;99.90;;;;;;4947739;28;20174;-81
2024/01/27 05:15:39;;;;;;;30.92;4.80;;;4.90;99.90;;;;;;4947020;29;20027;-86
2024/01/27 05:18:04;;;;;;;28.80;5.22;;;4.90;99.90;;;;;;4940354;28;20472;-81
2024/01/27 05:20:30;;;;;;;53.45;6.25;;;4.90;99.90;;;;;;4946636;28;20034;-83
2024/01/27 05:22:55;;;;;;;33.47;4.75;;;4.80;99.90;;;;;;4949969;28;20329;-81
2024/01/27 05:25:22;;;;;;;24.20;3.63;;;4.90;99.90;;;;;;4951747;28;20025;-85
2024/01/27 05:27:48;;;;;;;25.13;3.67;;;4.80;99.90;;;;;;4945303;28;20102;-83
2024/01/27 05:30:15;;;;;;;35.85;4.47;;;4.80;99.90;;;;;;4945962;28;20467;-84
2024/01/27 05:32:41;;;;;;;39.55;4.90;;;4.80;99.90;;;;;;4942957;28;20423;-86
2024/01/27 05:35:07;;;;;;;38.80;4.72;;;4.80;99.90;;;;;;4947281;28;20034;-84
2024/01/27 05:37:33;;;;;;;30.35;4.50;;;4.80;99.90;;;;;;4951198;28;20753;-80
2024/01/27 05:39:59;;;;;;;33.72;5.10;;;4.70;99.90;;;;;;4948133;28;20058;-83
2024/01/27 05:42:24;;;;;;;25.80;4.88;;;4.70;99.90;;;;;;4945249;28;20027;-81
2024/01/27 05:44:50;;;;;;;29.80;4.10;;;4.60;99.90;;;;;;4943396;28;20102;-83
2024/01/27 05:47:16;;;;;;;29.75;4.70;;;4.60;99.90;;;;;;4945604;29;20046;-85
2024/01/27 05:49:42;;;;;;;35.35;4.25;;;4.60;99.90;;;;;;4946760;28;20522;-82
2024/01/27 05:52:08;;;;;;;26.63;4.32;;;4.60;99.90;;;;;;4948545;28;20387;-82
2024/01/27 05:54:34;;;;;;;34.05;5.38;;;4.70;99.90;;;;;;4949096;28;20030;-84
2024/01/27 05:57:00;;;;;;;27.05;4.93;;;4.70;99.90;;;;;;4946441;28;20030;-82
2024/01/27 05:59:25;;;;;;;27.52;4.25;;;4.60;99.90;;;;;;4942248;28;20043;-82
2024/01/27 06:01:51;;;;;;;23.08;4.28;;;4.60;99.90;;;;;;4947578;28;20031;-85
2024/01/27 06:04:16;;;;;;;24.63;3.80;;;4.70;99.90;;;;;;4947767;28;20022;-80
2024/01/27 06:06:42;;;;;;;31.65;4.68;;;4.60;99.90;;;;;;4960348;28;20113;-80
2024/01/27 06:09:11;;;;;;;34.03;6.03;;;4.60;99.90;;;;;;4945757;28;20029;-80
2024/01/27 06:11:37;;;;;;;32.80;3.65;;;4.60;99.90;;;;;;4941603;28;20113;-83
2024/01/27 06:14:09;;;;;;;30.58;4.40;;;4.60;99.90;;;;;;4943082;28;20026;-86
2024/01/27 06:16:35;;;;;;;30.20;5.68;;;4.60;99.90;;;;;;4947953;28;20027;-81
2024/01/27 06:19:01;;;;;;;33.03;6.68;;;4.60;99.90;;;;;;4942213;28;20062;-87
2024/01/27 06:21:26;;;;;;;29.08;4.90;;;4.50;99.90;;;;;;4945369;28;20027;-81
2024/01/27 06:23:52;;;;;;;31.73;8.45;;;4.60;99.90;;;;;;4943627;28;20120;-84
2024/01/27 06:26:18;;;;;;;26.75;6.57;;;4.60;99.90;;;;;;4943320;28;20597;-81
2024/01/27 06:28:43;;;;;;;25.45;4.05;;;4.60;99.90;;;;;;4944815;28;20027;-81
2024/01/27 06:31:09;;;;;;;44.13;7.40;;;4.60;99.90;;;;;;4949119;28;20023;-80
2024/01/27 06:33:35;;;;;;;36.88;6.05;;;4.60;99.90;;;;;;4945018;28;20028;-80
2024/01/27 06:36:01;;;;;;;36.63;6.32;;;4.60;99.90;;;;;;4946888;28;20023;-80
2024/01/27 06:38:31;;;;;;;25.83;5.03;;;4.60;99.90;;;;;;4945713;28;20031;-82
2024/01/27 06:40:57;;;;;;;34.92;5.07;;;4.60;99.90;;;;;;4945405;28;20086;-85
2024/01/27 06:43:23;;;;;;;15.63;3.25;;;4.60;99.90;;;;;;4946082;28;20114;-82
2024/01/27 06:45:49;;;;;;;30.90;4.40;;;4.60;99.90;;;;;;4945548;29;20148;-82
2024/01/27 06:48:15;;;;;;;21.63;3.65;;;4.60;99.90;;;;;;4953258;28;20023;-82
2024/01/27 06:50:40;;;;;;;26.40;4.20;;;4.60;99.90;;;;;;4945528;29;20075;-80
2024/01/27 06:53:07;;;;;;;36.33;4.70;;;4.50;99.90;;;;;;4941768;28;20052;-86
2024/01/27 06:55:32;;;;;;;29.27;5.20;;;4.60;99.90;;;;;;4944100;28;20027;-81
2024/01/27 06:57:58;;;;;;;25.60;4.22;;;4.60;99.90;;;;;;4945796;28;20087;-85
2024/01/27 07:00:24;;;;;;;24.15;4.03;;;4.60;99.90;;;;;;4946057;28;20406;-80
2024/01/27 07:02:49;;;;;;;33.85;4.68;;;4.60;99.90;;;;;;4944017;28;20023;-82
2024/01/27 07:05:15;;;;;;;20.58;4.45;;;4.60;99.90;;;;;;4946037;29;20321;-81
2024/01/27 07:07:41;;;;;;;22.33;4.28;;;4.60;99.90;;;;;;4945471;29;20042;-81
2024/01/27 07:10:07;;;;;;;23.73;5.47;;;4.60;99.90;;;;;;4944144;28;20531;-81
2024/01/27 07:12:34;;;;;;;29.02;4.60;;;4.50;99.90;;;;;;4947600;28;20023;-83
2024/01/27 07:15:00;;;;;;;15.23;3.22;;;4.60;99.90;;;;;;4942212;28;20058;-85
2024/01/27 07:17:29;;;;;;;20.15;3.70;;;4.50;99.90;;;;;;4941731;28;20027;-83
2024/01/27 07:19:55;;;;;;;27.90;3.90;;;4.50;99.90;;;;;;4946376;28;20110;-82
2024/01/27 07:22:22;;;;;;;20.33;3.78;;;4.50;99.90;;;;;;4947094;28;20024;-83
2024/01/27 07:24:51;;;;;;;29.15;4.68;;;4.50;99.90;;;;;;4951503;28;20383;-85
2024/01/27 07:27:18;;;;;;;31.45;4.85;;;4.50;99.90;;;;;;4954562;28;20387;-80
2024/01/27 07:29:43;;;;;;;30.92;4.40;;;4.50;99.90;;;;;;4948140;28;20027;-81
2024/01/27 07:32:13;;;;;;;21.88;4.40;;;4.50;99.90;;;;;;4949075;28;20030;-80
2024/01/27 07:34:43;;;;;;;21.17;4.22;;;4.50;99.90;;;;;;4951567;28;20372;-83
2024/01/27 07:37:09;;;;;;;41.17;6.20;;;4.60;99.90;;;;;;4948024;28;20031;-84
2024/01/27 07:39:34;;;;;;;16.20;3.78;;;4.60;99.90;;;;;;4951309;28;20146;-82
2024/01/27 07:42:00;;;;;;;27.20;4.13;;;4.60;99.90;;;;;;4948553;28;20494;-80
2024/01/27 07:44:25;;;;;;;37.58;5.20;;;4.60;99.90;;;;;;4949790;28;20038;-81
2024/01/27 07:46:51;;;;;;;22.33;4.18;;;4.70;99.90;;;;;;4949806;28;20023;-80
2024/01/27 07:49:18;;;;;;;25.50;4.35;;;4.70;99.90;;;;;;4956605;28;20062;-81
2024/01/27 07:51:45;;;;;;;26.83;5.63;;;4.70;99.90;;;;;;4945065;28;20100;-86
2024/01/27 07:54:10;;;;;;;17.13;3.70;;;4.80;99.90;;;;;;4944752;28;20609;-91
2024/01/27 07:56:38;;;;;;;31.75;5.35;;;4.80;99.90;;;;;;4949439;28;20037;-85
2024/01/27 07:59:04;;;;;;;22.38;3.50;;;4.80;99.90;;;;;;4951429;28;20043;-86
2024/01/27 08:01:29;;;;;;;28.27;4.70;;;4.80;99.90;;;;;;4950237;28;20380;-82
2024/01/27 08:03:55;;;;;;;26.77;4.32;;;4.80;99.90;;;;;;4948916;29;20025;-81
2024/01/27 08:06:29;;;;;;;29.23;4.30;;;4.80;99.90;;;;;;4948062;28;20526;-80
2024/01/27 08:08:54;;;;;;;40.13;5.70;;;4.90;99.90;;;;;;4946184;28;20026;-82
2024/01/27 08:11:20;;;;;;;29.58;4.40;;;4.80;99.90;;;;;;4945802;28;20078;-83
2024/01/27 08:13:46;;;;;;;28.30;4.60;;;4.80;99.90;;;;;;4949311;28;20422;-83
2024/01/27 08:16:13;;;;;;;34.42;4.97;;;4.80;99.90;;;;;;4950360;28;20315;-80
2024/01/27 08:18:42;;;;;;;44.92;6.30;;;4.90;99.90;;;;;;4956842;28;20380;-80
2024/01/27 08:21:08;;;;;;;23.25;3.60;;;4.90;99.90;;;;;;4947793;28;20030;-85
2024/01/27 08:23:34;;;;;;;27.13;4.75;;;4.90;99.90;;;;;;4950306;28;20384;-83
2024/01/27 08:25:59;;;;;;;31.20;4.95;;;4.90;99.90;;;;;;4947952;28;20023;-81
2024/01/27 08:28:28;;;;;;;30.35;4.18;;;5.00;99.90;;;;;;4950660;28;20073;-86
2024/01/27 08:30:54;;;;;;;20.38;3.83;;;5.10;99.90;;;;;;4947272;28;20066;-84
2024/01/27 08:33:20;;;;;;;34.10;5.50;;;5.10;99.90;;;;;;4949523;28;20472;-83
2024/01/27 08:35:49;;;;;;;26.10;4.15;;;5.10;99.90;;;;;;4945198;28;20023;-82
2024/01/27 08:38:15;;;;;;;23.95;3.97;;;5.10;99.90;;;;;;4949093;28;20043;-82
2024/01/27 08:40:40;;;;;;;26.65;4.18;;;5.10;99.90;;;;;;4948101;28;20070;-83
2024/01/27 08:43:10;;;;;;;23.65;4.00;;;5.20;99.90;;;;;;4947880;28;20035;-82
2024/01/27 08:45:37;;;;;;;30.15;5.03;;;5.20;99.90;;;;;;4946372;28;20228;-84
2024/01/27 08:48:03;;;;;;;25.40;3.92;;;5.20;99.90;;;;;;4947605;28;20035;-80
2024/01/27 08:50:29;;;;;;;27.85;4.18;;;5.20;99.90;;;;;;4949769;28;20027;-79
2024/01/27 08:52:54;;;;;;;20.25;4.30;;;5.20;99.90;;;;;;4946426;28;20287;-81
2024/01/27 08:55:23;;;;;;;22.98;4.63;;;5.30;99.90;;;;;;4943318;28;20027;-81
2024/01/27 08:57:49;;;;;;;20.25;3.55;;;5.30;99.90;;;;;;4947419;28;20032;-83
2024/01/27 09:00:16;;;;;;;30.48;4.40;;;5.30;99.90;;;;;;4944636;28;20030;-80
2024/01/27 09:02:43;;;;;;;30.95;4.28;;;5.40;99.90;;;;;;4953259;28;20035;-82
2024/01/27 09:05:09;;;;;;;34.00;5.15;;;5.50;99.90;;;;;;4948288;28;20027;-79
2024/01/27 09:07:36;;;;;;;25.65;4.15;;;5.50;99.90;;;;;;4948878;28;20024;-81
2024/01/27 09:10:02;;;;;;;25.33;3.92;;;5.50;99.90;;;;;;4951931;28;20039;-79
2024/01/27 09:12:28;;;;;;;29.25;4.85;;;5.50;99.90;;;;;;4928587;29;20166;-80
2024/01/27 09:14:54;;;;;;;16.95;3.53;;;5.60;99.90;;;;;;4946852;28;20110;-79
2024/01/27 09:17:22;;;;;;;25.45;4.97;;;5.60;99.90;;;;;;4949499;28;20367;-82
2024/01/27 09:19:47;;;;;;;22.13;4.30;;;5.60;99.90;;;;;;4949923;28;20044;-84
2024/01/27 09:22:13;;;;;;;12.18;3.35;;;5.70;99.90;;;;;;4944282;28;20075;-79
2024/01/27 09:24:39;;;;;;;19.58;4.07;;;5.80;99.90;;;;;;4947602;28;20395;-81
2024/01/27 09:27:05;;;;;;;20.63;4.03;;;5.80;99.90;;;;;;4948567;28;20031;-84
2024/01/27 09:29:31;;;;;;;28.23;4.25;;;5.80;99.90;;;;;;4944879;28;20078;-80
2024/01/27 09:31:56;;;;;;;33.05;9.10;;;5.80;99.90;;;;;;4949158;28;20058;-82
2024/01/27 09:34:22;;;;;;;28.83;3.53;;;5.80;99.90;;;;;;4946819;28;20597;-81
2024/01/27 09:36:47;;;;;;;12.88;2.88;;;5.90;99.90;;;;;;4953667;28;20468;-82
2024/01/27 09:39:13;;;;;;;18.52;3.83;;;5.90;99.90;;;;;;4948058;28;20120;-80
2024/01/27 09:41:39;;;;;;;22.65;4.20;;;5.90;99.90;;;;;;4950660;28;20031;-80
2024/01/27 09:44:05;;;;;;;24.88;4.68;;;5.90;99.90;;;;;;4945261;28;20035;-80
2024/01/27 09:46:33;;;;;;;19.05;3.47;;;5.90;99.90;;;;;;4952905;28;20533;-80
2024/01/27 09:48:59;;;;;;;20.10;3.28;;;5.90;99.90;;;;;;4948616;28;20077;-80
2024/01/27 09:51:25;;;;;;;25.02;4.70;;;6.00;99.90;;;;;;4948839;28;20030;-82
2024/01/27 09:53:52;;;;;;;19.88;3.67;;;6.00;99.90;;;;;;4945972;28;20023;-81
2024/01/27 09:56:18;;;;;;;15.88;3.95;;;6.10;99.90;;;;;;4948649;28;20031;-85
2024/01/27 09:58:50;;;;;;;17.17;3.90;;;6.20;99.90;;;;;;4948263;28;20162;-80
2024/01/27 10:01:21;;;;;;;19.38;3.60;;;6.10;99.90;;;;;;4949933;28;20023;-80
2024/01/27 10:03:49;;;;;;;20.38;4.90;;;6.10;99.90;;;;;;4945176;28;20031;-80
2024/01/27 10:06:15;;;;;;;20.90;4.18;;;6.10;99.90;;;;;;4956038;28;20094;-81
2024/01/27 10:08:43;;;;;;;31.42;3.83;;;6.10;99.90;;;;;;4948449;28;20031;-81
2024/01/27 10:11:10;;;;;;;21.88;4.47;;;6.20;99.90;;;;;;4951369;28;20035;-83
2024/01/27 10:13:39;;;;;;;23.45;3.90;;;6.30;99.90;;;;;;4946580;28;20027;-85
2024/01/27 10:16:06;;;;;;;21.77;4.45;;;6.40;99.90;;;;;;4954913;28;20046;-81
2024/01/27 10:18:33;;;;;;;25.30;4.20;;;6.50;99.90;;;;;;4946457;28;20043;-81
2024/01/27 10:21:00;;;;;;;20.00;4.15;;;6.50;99.90;;;;;;4951081;28;20046;-81
2024/01/27 10:23:26;;;;;;;29.35;5.32;;;6.50;99.90;;;;;;4947373;28;20105;-84
2024/01/27 10:25:52;;;;;;;22.05;3.75;;;6.60;99.90;;;;;;4959031;28;20030;-84
2024/01/27 10:28:18;;;;;;;19.83;4.05;;;6.60;99.90;;;;;;4947234;28;20370;-81
2024/01/27 10:30:45;;;;;;;25.45;5.60;;;6.70;99.90;;;;;;4944186;28;20034;-82
2024/01/27 10:33:15;;;;;;;18.00;3.78;;;6.70;99.90;;;;;;4944304;28;20039;-83
2024/01/27 10:35:43;;;;;;;26.05;4.20;;;6.80;99.90;;;;;;4956644;28;20027;-87
2024/01/27 10:38:09;;;;;;;22.67;3.40;;;6.80;99.90;;;;;;4928644;28;20130;-80
2024/01/27 10:40:38;;;;;;;17.30;4.10;;;6.80;99.90;;;;;;4951314;28;20098;-83
2024/01/27 10:43:05;;;;;;;16.02;3.08;;;6.80;99.90;;;;;;4948010;28;20031;-84
2024/01/27 10:45:41;;;;;;;14.18;3.35;;;6.90;99.90;;;;;;4945472;28;20055;-82
2024/01/27 10:48:10;;;;;;;20.08;3.45;;;7.00;99.90;;;;;;4944696;28;20043;-90
2024/01/27 10:50:39;;;;;;;10.93;3.25;;;7.10;99.90;;;;;;4947772;28;20068;-81
2024/01/27 10:53:20;;;;;;;17.27;2.72;;;7.20;99.90;;;;;;4929885;29;20075;-82
2024/01/27 10:55:49;;;;;;;9.50;2.47;;;7.20;99.90;;;;;;4947879;28;20452;-86
2024/01/27 10:58:15;;;;;;;20.48;2.97;;;7.20;99.90;;;;;;4944525;28;20745;-82
2024/01/27 11:00:45;;;;;;;16.55;4.15;;;7.20;99.90;;;;;;4947965;28;20036;-84
2024/01/27 11:03:11;;;;;;;15.68;3.00;;;7.30;99.90;;;;;;4942188;28;20082;-86
2024/01/27 11:05:41;;;;;;;17.27;3.25;;;7.30;99.90;;;;;;4944600;28;20082;-88
2024/01/27 11:08:09;;;;;;;22.77;2.53;;;7.30;99.90;;;;;;4950659;28;20041;-81
2024/01/27 11:10:37;;;;;;;13.48;2.60;;;7.40;99.90;;;;;;4943669;28;20035;-80
2024/01/27 11:13:04;;;;;;;18.20;3.55;;;7.50;99.90;;;;;;4947998;28;20047;-89
2024/01/27 11:15:30;;;;;;;29.90;6.72;;;7.50;99.90;;;;;;4944608;28;20028;-86
2024/01/27 11:17:59;;;;;;;29.52;6.97;;;7.60;99.90;;;;;;4939270;28;20033;-84
2024/01/27 11:20:25;;;;;;;17.25;3.55;;;7.60;99.90;;;;;;4942369;28;20106;-81
2024/01/27 11:22:52;;;;;;;16.88;2.20;;;7.60;99.90;;;;;;4942589;28;20074;-81
2024/01/27 11:25:19;;;;;;;15.32;2.65;;;7.60;99.90;;;;;;4943155;28;20062;-84
2024/01/27 11:27:48;;;;;;;12.35;3.15;;;7.70;99.90;;;;;;4954483;28;20527;-85
2024/01/27 11:30:29;;;;;;;6.68;2.13;;;7.70;99.90;;;;;;4946773;28;20027;-83
2024/01/27 11:32:57;;;;;;;14.60;3.58;;;7.70;99.90;;;;;;4946596;28;20269;-84
2024/01/27 11:35:23;;;;;;;14.00;2.00;;;7.70;99.90;;;;;;4947796;28;20501;-83
2024/01/27 11:37:49;;;;;;;6.97;1.83;;;7.70;99.90;;;;;;4947437;28;20036;-82
2024/01/27 11:40:15;;;;;;;10.77;2.55;;;7.70;99.90;;;;;;4947760;28;20023;-85
2024/01/27 11:42:41;;;;;;;8.02;2.33;;;7.70;99.90;;;;;;4946754;28;20122;-83
2024/01/27 11:45:09;;;;;;;6.53;1.55;;;7.70;99.90;;;;;;4950708;28;20037;-81
2024/01/27 11:47:37;;;;;;;7.70;2.10;;;7.70;99.90;;;;;;4946904;28;20039;-87
2024/01/27 11:50:03;;;;;;;10.07;2.28;;;7.70;99.90;;;;;;4952427;28;20058;-83
2024/01/27 11:52:29;;;;;;;13.27;2.88;;;7.80;99.90;;;;;;4950938;28;20062;-82
2024/01/27 11:54:56;;;;;;;10.85;3.38;;;7.80;99.90;;;;;;4945658;28;20364;-83
2024/01/27 11:57:23;;;;;;;10.15;1.88;;;7.80;99.90;;;;;;4946461;28;20371;-82
2024/01/27 11:59:48;;;;;;;13.70;2.83;;;7.80;99.90;;;;;;4945803;28;20556;-81
2024/01/27 12:02:14;;;;;;;10.70;2.28;;;7.80;99.90;;;;;;4942729;28;20130;-82
2024/01/27 12:04:40;;;;;;;15.70;2.40;;;7.80;99.90;;;;;;4949816;28;20055;-80
2024/01/27 12:07:07;;;;;;;6.88;1.95;;;7.80;99.90;;;;;;4950115;28;20027;-82
2024/01/27 12:09:32;;;;;;;5.70;2.30;;;7.80;99.90;;;;;;4947669;28;20384;-82
2024/01/27 12:11:58;;;;;;;22.48;3.10;;;7.70;99.90;;;;;;4949022;28;20040;-83
2024/01/27 12:14:24;;;;;;;9.57;2.63;;;7.80;99.90;;;;;;4950119;29;20025;-83
2024/01/27 12:16:51;;;;;;;10.07;2.90;;;7.90;99.90;;;;;;4949463;28;20023;-84
2024/01/27 12:19:16;;;;;;;10.13;2.92;;;7.90;99.90;;;;;;4946968;28;20062;-84
2024/01/27 12:21:50;;;;;;;11.02;2.35;;;8.00;99.90;;;;;;4952453;28;20480;-82
2024/01/27 12:24:18;;;;;;;13.65;2.53;;;8.00;99.90;;;;;;4944497;28;20320;-83
2024/01/27 12:26:44;;;;;;;8.18;2.30;;;7.90;99.90;;;;;;4947658;28;20701;-83
2024/01/27 12:29:10;;;;;;;11.10;2.33;;;7.90;99.90;;;;;;4955403;28;20448;-82
2024/01/27 12:31:38;;;;;;;11.93;2.72;;;7.90;99.90;;;;;;4954513;28;20029;-91
2024/01/27 12:34:03;;;;;;;15.05;2.22;;;7.90;99.90;;;;;;4946745;28;20039;-80
2024/01/27 12:36:32;;;;;;;12.65;3.65;;;7.90;99.90;;;;;;4947416;28;20171;-89
2024/01/27 12:38:59;;;;;;;13.52;2.58;;;8.00;99.90;;;;;;4934047;29;20525;-82
2024/01/27 12:41:29;;;;;;;12.40;2.40;;;8.00;99.90;;;;;;4950495;28;20019;-88
2024/01/27 12:43:55;;;;;;;18.75;3.50;;;8.00;99.90;;;;;;4945467;28;20035;-83